Time;durP1;ratioP1;P1;durP2;ratioP2;P2;SDS_P1;SDS_P2;PMS_P1;PMS_P2;Temp;Humidity;BMP_temperature;BMP_pressure;BME280_temperature;BME280_humidity;BME280_pressure;Samples;Min_cycle;Max_cycle;Signal;HPM_P1;HPM_P2
2024/04/04 00:02:20;;;;;;;0.50;0.50;;;;;;;12.35;55.44;96850.47;4967802;28;20081;-74
2024/04/04 00:04:45;;;;;;;0.60;0.60;;;;;;;11.91;55.50;96745.06;4967839;28;20066;-67
2024/04/04 00:07:11;;;;;;;0.57;0.57;;;;;;;12.43;55.44;96830.69;4968301;28;20147;-74
2024/04/04 00:09:37;;;;;;;0.60;0.60;;;;;;;12.80;55.39;96884.13;4983735;28;20580;-66
2024/04/04 00:12:03;;;;;;;0.60;0.60;;;;;;;12.58;55.30;96860.19;4968024;28;20078;-73
2024/04/04 00:14:29;;;;;;;0.55;0.55;;;;;;;12.67;55.83;96882.84;4984069;28;20081;-74
2024/04/04 00:16:54;;;;;;;0.60;0.60;;;;;;;12.61;56.21;96892.75;4967631;28;20362;-64
2024/04/04 00:19:20;;;;;;;0.50;0.50;;;;;;;12.49;56.44;96890.25;4967073;28;20101;-73
2024/04/04 00:21:46;;;;;;;0.60;0.60;;;;;;;12.40;55.96;96880.66;4967657;28;20058;-74
2024/04/04 00:24:12;;;;;;;0.60;0.60;;;;;;;12.37;57.00;96887.81;4967597;28;20054;-73
2024/04/04 00:26:37;;;;;;;0.50;0.50;;;;;;;12.37;57.75;96881.44;4963682;28;20438;-65
2024/04/04 00:29:03;;;;;;;0.50;0.50;;;;;;;11.73;58.58;96824.59;4964473;28;20528;-65
2024/04/04 00:31:29;;;;;;;0.50;0.50;;;;;;;11.91;59.99;96872.75;4963780;28;20062;-64
2024/04/04 00:33:56;;;;;;;0.60;0.60;;;;;;;11.74;60.29;96837.31;4948511;28;20054;-73
2024/04/04 00:36:22;;;;;;;0.50;0.50;;;;;;;11.91;60.79;96873.56;4964134;28;20062;-64
2024/04/04 00:38:48;;;;;;;0.50;0.50;;;;;;;11.62;60.62;96835.56;4964156;28;20050;-73
2024/04/04 00:41:14;;;;;;;0.50;0.50;;;;;;;12.01;60.30;96874.81;4963823;28;20134;-73
2024/04/04 00:43:39;;;;;;;0.60;0.60;;;;;;;11.25;59.13;96759.16;4964002;28;20596;-64
2024/04/04 00:46:06;;;;;;;0.50;0.50;;;;;;;11.50;58.90;96793.44;4965395;28;20062;-66
2024/04/04 00:48:32;;;;;;;0.60;0.60;;;;;;;12.09;58.81;96882.03;4964215;28;20438;-66
2024/04/04 00:50:58;;;;;;;0.50;0.50;;;;;;;11.23;59.04;96755.94;4947939;28;20047;-64
2024/04/04 00:53:26;;;;;;;0.57;0.57;;;;;;;12.00;59.97;96842.66;4963358;28;20047;-72
2024/04/04 00:55:54;;;;;;;0.60;0.60;;;;;;;11.75;60.39;96816.69;4963707;28;20526;-64
2024/04/04 00:58:20;;;;;;;0.50;0.50;;;;;;;10.08;60.04;96545.84;4964070;28;20940;-65
2024/04/04 01:00:46;;;;;;;0.52;0.52;;;;;;;12.23;59.54;96876.59;4947552;28;20449;-73
2024/04/04 01:03:12;;;;;;;0.60;0.60;;;;;;;12.23;59.57;96876.59;4963764;28;20062;-65
2024/04/04 01:05:37;;;;;;;0.50;0.50;;;;;;;12.21;59.08;96873.38;4963563;28;20065;-73
2024/04/04 01:08:05;;;;;;;0.60;0.60;;;;;;;12.11;58.62;96876.88;4963617;28;20058;-65
2024/04/04 01:10:31;;;;;;;0.50;0.50;;;;;;;12.38;58.39;96872.72;4946936;28;20055;-66
2024/04/04 01:12:57;;;;;;;0.50;0.50;;;;;;;12.36;57.84;96886.19;4963308;28;20094;-73
2024/04/04 01:15:22;;;;;;;0.50;0.50;;;;;;;9.61;57.51;96449.66;4962991;28;20568;-73
2024/04/04 01:17:48;;;;;;;0.50;0.50;;;;;;;11.83;57.59;96807.25;4963875;28;20094;-65
2024/04/04 01:20:14;;;;;;;0.50;0.50;;;;;;;12.36;58.60;96869.53;4962665;28;20113;-64
2024/04/04 01:22:40;;;;;;;0.50;0.50;;;;;;;12.44;59.08;96887.84;4963147;28;20059;-64
2024/04/04 01:25:07;;;;;;;0.55;0.55;;;;;;;12.39;58.56;96877.13;4963173;28;20058;-64
2024/04/04 01:27:33;;;;;;;0.60;0.60;;;;;;;12.37;59.07;96875.88;4963734;28;20066;-72
2024/04/04 01:29:59;;;;;;;0.50;0.50;;;;;;;11.50;58.99;96804.53;4963795;28;20054;-72
2024/04/04 01:32:25;;;;;;;0.50;0.50;;;;;;;11.60;58.60;96782.44;4980358;28;20193;-65
2024/04/04 01:34:50;;;;;;;0.60;0.60;;;;;;;12.23;58.48;96873.81;4943624;28;20059;-74
2024/04/04 01:37:16;;;;;;;0.50;0.50;;;;;;;12.25;58.73;96874.19;4959842;28;20051;-67
2024/04/04 01:39:42;;;;;;;0.50;0.50;;;;;;;12.31;58.17;96861.56;4956659;28;20149;-65
2024/04/04 01:42:08;;;;;;;0.60;0.60;;;;;;;11.94;57.84;96820.03;4962911;28;20514;-71
2024/04/04 01:44:33;;;;;;;0.60;0.60;;;;;;;12.03;57.60;96816.91;4978863;28;20435;-66
2024/04/04 01:46:59;;;;;;;0.60;0.60;;;;;;;12.23;57.98;96832.16;4947147;28;20059;-74
2024/04/04 01:49:25;;;;;;;0.50;0.50;;;;;;;12.01;57.90;96794.31;4946582;28;20130;-66
2024/04/04 01:51:51;;;;;;;0.50;0.50;;;;;;;11.88;58.16;96781.91;4977074;28;20410;-67
2024/04/04 01:54:16;;;;;;;0.50;0.50;;;;;;;12.41;58.40;96858.06;4962569;28;20051;-65
2024/04/04 01:56:42;;;;;;;0.50;0.50;;;;;;;12.43;58.43;96852.91;4962260;28;20047;-65
2024/04/04 01:59:10;;;;;;;0.60;0.60;;;;;;;11.39;57.83;96748.19;4962534;28;20059;-72
2024/04/04 02:01:36;;;;;;;0.50;0.50;;;;;;;11.90;58.13;96799.00;4962069;28;20061;-73
2024/04/04 02:04:02;;;;;;;0.60;0.60;;;;;;;12.14;58.79;96857.47;4945823;28;20883;-71
2024/04/04 02:06:28;;;;;;;0.60;0.60;;;;;;;11.49;59.15;96775.22;4962811;28;20561;-64
2024/04/04 02:08:54;;;;;;;0.57;0.57;;;;;;;12.05;61.09;96870.09;4963297;28;20054;-64
2024/04/04 02:11:20;;;;;;;0.50;0.50;;;;;;;11.85;62.87;96874.28;4946970;28;20166;-65
2024/04/04 02:13:46;;;;;;;0.50;0.50;;;;;;;11.41;63.17;96840.13;4962473;28;20133;-73
2024/04/04 02:16:12;;;;;;;0.50;0.50;;;;;;;11.59;63.71;96879.91;4978338;28;20059;-66
2024/04/04 02:18:38;;;;;;;0.50;0.50;;;;;;;11.53;64.64;96873.13;4962298;28;20125;-66
2024/04/04 02:21:04;;;;;;;0.50;0.50;;;;;;;11.26;64.67;96843.91;4961956;28;20668;-63
2024/04/04 02:23:31;;;;;;;0.50;0.50;;;;;;;11.48;65.43;96870.69;4977868;28;20147;-64
2024/04/04 02:25:57;;;;;;;0.50;0.50;;;;;;;10.85;65.34;96789.59;4962054;28;20050;-65
2024/04/04 02:28:23;;;;;;;0.50;0.50;;;;;;;11.46;65.55;96881.38;4978473;28;20062;-64
2024/04/04 02:30:49;;;;;;;0.43;0.43;;;;;;;10.84;65.11;96777.72;4980352;28;20062;-73
2024/04/04 02:33:15;;;;;;;0.50;0.50;;;;;;;10.59;64.76;96715.72;4968829;28;20518;-65
2024/04/04 02:35:51;;;;;;;0.50;0.50;;;;;;;11.53;64.60;96864.81;4961754;28;20125;-64
2024/04/04 02:38:17;;;;;;;0.50;0.50;;;;;;;11.52;63.35;96857.66;4962033;28;20066;-73
2024/04/04 02:40:43;;;;;;;0.50;0.50;;;;;;;11.63;63.23;96853.06;4978212;28;20607;-64
2024/04/04 02:43:08;;;;;;;0.50;0.50;;;;;;;10.89;63.22;96729.47;4961830;28;20253;-64
2024/04/04 02:45:34;;;;;;;0.50;0.50;;;;;;;11.46;62.32;96803.72;4961755;28;20054;-64
2024/04/04 02:48:01;;;;;;;0.60;0.60;;;;;;;11.98;61.20;96873.59;4977374;28;20514;-72
2024/04/04 02:50:27;;;;;;;0.50;0.50;;;;;;;11.52;61.15;96835.47;4961128;28;20059;-64
2024/04/04 02:52:53;;;;;;;0.50;0.50;;;;;;;10.92;60.93;96712.91;4962288;28;20113;-65
2024/04/04 02:55:19;;;;;;;0.50;0.50;;;;;;;11.95;61.13;96870.78;4961630;28;20623;-73
2024/04/04 02:57:45;;;;;;;0.50;0.50;;;;;;;8.66;62.14;96356.56;4960882;28;20057;-64
2024/04/04 03:00:11;;;;;;;0.55;0.55;;;;;;;11.53;61.86;96826.78;4959747;28;20058;-64
2024/04/04 03:02:37;;;;;;;0.50;0.50;;;;;;;11.40;61.50;96805.22;4942744;28;20059;-64
2024/04/04 03:05:04;;;;;;;0.60;0.60;;;;;;;11.82;63.80;96883.38;4958663;28;20172;-74
2024/04/04 03:07:30;;;;;;;0.50;0.50;;;;;;;11.52;64.82;96846.56;4945296;28;20059;-66
2024/04/04 03:09:55;;;;;;;0.50;0.50;;;;;;;10.93;64.86;96802.34;4977354;28;20696;-73
2024/04/04 03:12:21;;;;;;;0.50;0.50;;;;;;;11.62;64.64;96877.19;4961514;28;20058;-73
2024/04/04 03:14:47;;;;;;;0.50;0.50;;;;;;;11.45;64.11;96840.94;4961401;28;20483;-74
2024/04/04 03:17:12;;;;;;;0.50;0.50;;;;;;;11.51;65.18;96879.06;4961591;28;20047;-73
2024/04/04 03:19:38;;;;;;;0.50;0.50;;;;;;;11.57;64.48;96871.19;4961289;28;20055;-72
2024/04/04 03:22:04;;;;;;;0.50;0.50;;;;;;;11.18;64.55;96826.41;4961036;28;20073;-73
2024/04/04 03:24:30;;;;;;;0.50;0.50;;;;;;;10.98;65.41;96832.50;4961507;28;20572;-72
2024/04/04 03:26:56;;;;;;;0.50;0.50;;;;;;;10.22;65.48;96720.38;4961533;28;20058;-74
2024/04/04 03:29:22;;;;;;;0.57;0.57;;;;;;;10.68;64.67;96779.91;4977249;28;20061;-64
2024/04/04 03:31:48;;;;;;;0.50;0.50;;;;;;;11.32;64.70;96870.09;4961413;28;20134;-64
2024/04/04 03:34:13;;;;;;;0.50;0.50;;;;;;;10.75;65.12;96779.19;4961669;28;20082;-73
2024/04/04 03:36:41;;;;;;;0.50;0.50;;;;;;;10.95;65.31;96816.63;4945805;28;20058;-73
2024/04/04 03:39:06;;;;;;;0.50;0.50;;;;;;;10.36;70.71;96884.69;4962189;28;20089;-64
2024/04/04 03:41:32;;;;;;;0.50;0.50;;;;;;;9.87;72.09;96839.63;4961041;28;20058;-64
2024/04/04 03:43:58;;;;;;;0.50;0.50;;;;;;;9.86;72.86;96831.69;4961435;28;20114;-72
2024/04/04 03:46:24;;;;;;;0.50;0.50;;;;;;;9.62;72.55;96788.63;4961210;28;20073;-74
2024/04/04 03:48:49;;;;;;;0.45;0.45;;;;;;;10.43;71.44;96872.94;4960841;28;20057;-74
2024/04/04 03:51:15;;;;;;;0.50;0.50;;;;;;;10.63;70.91;96911.22;4945662;28;20062;-66
2024/04/04 03:53:41;;;;;;;0.40;0.40;;;;;;;10.78;69.99;96869.84;4961390;28;20573;-74
2024/04/04 03:56:07;;;;;;;0.50;0.50;;;;;;;9.83;69.71;96710.72;4961848;28;20063;-65
2024/04/04 03:58:32;;;;;;;0.43;0.43;;;;;;;10.30;68.29;96781.00;4960433;28;20060;-74
2024/04/04 04:00:58;;;;;;;0.50;0.50;;;;;;;8.80;68.17;96539.00;4935331;28;20059;-74
2024/04/04 04:03:24;;;;;;;0.50;0.50;;;;;;;10.93;67.96;96868.84;4964607;28;20107;-65
2024/04/04 04:05:50;;;;;;;0.50;0.50;;;;;;;10.49;67.75;96789.16;4965022;28;20086;-67
2024/04/04 04:08:16;;;;;;;0.50;0.50;;;;;;;10.29;67.54;96739.84;4980846;28;20680;-65
2024/04/04 04:10:42;;;;;;;0.40;0.40;;;;;;;10.87;67.09;96826.03;4964904;28;20474;-65
2024/04/04 04:13:08;;;;;;;0.50;0.50;;;;;;;10.25;66.95;96750.88;4964289;28;20494;-65
2024/04/04 04:15:34;;;;;;;0.40;0.40;;;;;;;10.99;66.41;96850.72;4981012;28;20081;-65
2024/04/04 04:18:00;;;;;;;0.50;0.50;;;;;;;11.12;66.32;96865.94;4965332;28;20061;-65
2024/04/04 04:23:10;;;;;;;0.50;0.50;;;;;;;11.31;66.12;96862.97;4964386;28;20105;-65
2024/04/04 04:25:36;;;;;;;0.50;0.50;;;;;;;11.10;65.50;96823.91;4964419;28;20054;-72
2024/04/04 04:28:03;;;;;;;0.50;0.50;;;;;;;10.95;65.49;96795.28;4948183;28;20050;-64
2024/04/04 04:30:29;;;;;;;0.50;0.50;;;;;;;11.09;65.09;96802.94;4963972;28;20058;-73
2024/04/04 04:32:54;;;;;;;0.50;0.50;;;;;;;11.60;64.54;96864.88;4963716;28;20058;-73
2024/04/04 04:35:22;;;;;;;0.50;0.50;;;;;;;11.68;64.73;96863.81;4964052;28;20065;-66
2024/04/04 04:37:48;;;;;;;0.50;0.50;;;;;;;11.25;63.80;96804.31;4980178;28;20055;-65
2024/04/04 04:40:14;;;;;;;0.43;0.43;;;;;;;11.68;64.06;96867.38;4963694;28;20058;-74
2024/04/04 04:42:40;;;;;;;0.60;0.60;;;;;;;11.77;64.37;96869.84;4963808;28;20055;-74
2024/04/04 04:45:06;;;;;;;0.50;0.50;;;;;;;11.52;64.84;96818.84;4947184;28;20460;-72
2024/04/04 04:47:32;;;;;;;0.50;0.50;;;;;;;11.74;65.26;96878.94;4963630;28;20058;-75
2024/04/04 04:49:57;;;;;;;0.50;0.50;;;;;;;11.84;65.30;96879.03;4979878;28;20046;-66
2024/04/04 04:52:23;;;;;;;0.52;0.52;;;;;;;11.93;64.88;96878.72;4963692;28;20130;-62
2024/04/04 04:54:50;;;;;;;0.50;0.50;;;;;;;11.64;64.68;96810.25;4963778;28;20113;-74
2024/04/04 04:57:16;;;;;;;0.57;0.57;;;;;;;11.64;63.88;96832.44;4980864;28;20066;-75
2024/04/04 04:59:42;;;;;;;0.50;0.50;;;;;;;11.61;63.79;96797.13;4980205;28;20051;-64
2024/04/04 05:02:09;;;;;;;0.50;0.50;;;;;;;12.00;63.28;96823.25;4963506;28;20130;-75
2024/04/04 05:04:35;;;;;;;0.50;0.50;;;;;;;12.04;63.89;96813.75;4947766;28;20203;-74
2024/04/04 05:07:01;;;;;;;0.50;0.50;;;;;;;11.90;63.53;96762.91;4947959;28;20069;-76
2024/04/04 05:09:27;;;;;;;0.60;0.60;;;;;;;12.31;62.06;96789.38;4947145;28;20050;-75
2024/04/04 05:11:52;;;;;;;0.60;0.60;;;;;;;12.79;61.65;96848.34;4946796;28;20134;-74
2024/04/04 05:14:18;;;;;;;0.50;0.50;;;;;;;12.94;61.08;96850.84;4962835;28;20526;-74
2024/04/04 05:16:46;;;;;;;0.52;0.52;;;;;;;13.18;60.46;96850.16;4963403;28;20054;-63
2024/04/04 05:19:12;;;;;;;0.60;0.60;;;;;;;13.29;59.30;96847.44;4979630;28;20054;-64
2024/04/04 05:21:38;;;;;;;0.60;0.60;;;;;;;13.12;58.42;96801.66;4962629;28;20074;-64
2024/04/04 05:24:04;;;;;;;0.60;0.60;;;;;;;13.57;58.67;96856.66;4978973;28;20059;-76
2024/04/04 05:26:30;;;;;;;0.60;0.60;;;;;;;13.21;57.86;96782.66;4963060;28;20109;-73
2024/04/04 05:28:56;;;;;;;0.60;0.60;;;;;;;13.80;57.36;96859.06;4977810;28;20346;-65
2024/04/04 05:31:22;;;;;;;0.60;0.60;;;;;;;13.84;57.97;96859.88;4945822;28;20116;-73
2024/04/04 05:33:49;;;;;;;0.60;0.60;;;;;;;13.83;58.44;96868.63;4962720;28;20058;-76
2024/04/04 05:36:14;;;;;;;0.60;0.60;;;;;;;13.42;58.72;96804.94;4946193;28;20062;-74
2024/04/04 05:38:40;;;;;;;0.50;0.50;;;;;;;13.82;58.74;96844.75;4945098;28;20050;-71
2024/04/04 05:41:09;;;;;;;0.70;0.70;;;;;;;14.08;58.35;96869.44;4962126;28;20067;-71
2024/04/04 05:43:35;;;;;;;0.60;0.60;;;;;;;14.16;57.92;96854.31;4962138;28;20282;-61
2024/04/04 05:46:03;;;;;;;0.60;0.60;;;;;;;13.39;57.98;96752.84;4961721;28;20101;-62
2024/04/04 05:48:28;;;;;;;0.60;0.60;;;;;;;14.29;56.85;96863.91;4945492;28;20563;-71
2024/04/04 05:51:04;;;;;;;0.60;0.60;;;;;;;14.08;56.71;96786.69;4961650;28;20138;-68
2024/04/04 05:53:32;;;;;;;0.60;0.60;;;;;;;14.59;56.89;96878.22;4960459;28;20147;-60
2024/04/04 05:55:58;;;;;;;0.60;0.60;;;;;;;14.60;57.04;96879.81;4962033;28;20515;-74
2024/04/04 05:58:24;;;;;;;0.60;0.60;;;;;;;14.14;56.38;96823.28;4956436;28;20105;-61
2024/04/04 06:00:51;;;;;;;0.60;0.60;;;;;;;14.62;56.53;96866.28;4961189;28;20512;-68
2024/04/04 06:03:17;;;;;;;0.70;0.70;;;;;;;12.93;56.54;96587.91;4943912;28;20062;-69
2024/04/04 06:05:43;;;;;;;0.70;0.70;;;;;;;14.60;56.55;96830.44;4962160;28;20058;-70
2024/04/04 06:08:09;;;;;;;0.70;0.70;;;;;;;14.87;55.41;96827.97;4960268;28;20047;-64
2024/04/04 06:10:35;;;;;;;0.68;0.68;;;;;;;15.24;54.75;96858.91;4960862;28;20129;-61
2024/04/04 06:13:01;;;;;;;0.70;0.70;;;;;;;15.56;54.59;96862.38;4959549;28;20264;-74
2024/04/04 06:15:27;;;;;;;0.68;0.68;;;;;;;15.78;53.29;96833.13;4960650;28;20058;-61
2024/04/04 06:17:53;;;;;;;0.70;0.70;;;;;;;16.23;52.15;96854.31;4977600;28;20054;-63
2024/04/04 06:20:19;;;;;;;0.70;0.70;;;;;;;16.47;51.36;96858.16;4976971;28;20125;-71
2024/04/04 06:22:44;;;;;;;0.70;0.70;;;;;;;16.69;50.37;96858.75;4960292;28;20094;-74
2024/04/04 06:25:10;;;;;;;0.63;0.63;;;;;;;16.80;50.22;96859.44;4960594;28;20057;-67
2024/04/04 06:27:36;;;;;;;0.80;0.80;;;;;;;17.03;50.62;96853.97;4965115;28;20046;-64
2024/04/04 06:30:03;;;;;;;0.77;0.77;;;;;;;17.28;50.62;96865.69;4973615;28;20055;-70
2024/04/04 06:32:28;;;;;;;0.80;0.80;;;;;;;17.60;50.50;96852.09;4976241;28;20689;-72
2024/04/04 06:34:54;;;;;;;0.77;0.77;;;;;;;17.80;48.97;96844.59;4960608;28;20053;-69
2024/04/04 06:37:20;;;;;;;0.80;0.80;;;;;;;17.64;47.86;96836.06;4956350;28;20526;-64
2024/04/04 06:39:45;;;;;;;0.90;0.90;;;;;;;17.63;47.86;96870.88;4960012;28;20121;-72
2024/04/04 06:42:12;;;;;;;0.80;0.80;;;;;;;17.78;47.14;96855.47;4963382;28;20068;-69
2024/04/04 06:44:38;;;;;;;0.90;0.90;;;;;;;17.87;46.93;96861.31;4960728;28;20458;-63
2024/04/04 06:47:04;;;;;;;0.80;0.80;;;;;;;17.72;46.64;96860.72;4960717;28;20061;-69
2024/04/04 06:49:30;;;;;;;0.80;0.80;;;;;;;16.85;47.07;96761.06;4960784;28;20051;-65
2024/04/04 06:51:55;;;;;;;0.80;0.80;;;;;;;17.60;46.81;96840.91;4945333;28;20058;-76
2024/04/04 06:54:22;;;;;;;0.80;0.80;;;;;;;17.61;45.96;96803.25;4945425;28;20050;-62
2024/04/04 06:56:48;;;;;;;0.80;0.80;;;;;;;18.12;46.47;96861.75;4961122;28;20063;-60
2024/04/04 06:59:14;;;;;;;0.80;0.80;;;;;;;17.94;47.56;96855.63;4961721;28;20508;-60
2024/04/04 07:01:39;;;;;;;0.85;0.85;;;;;;;18.19;46.55;96844.03;4949116;28;20058;-74
2024/04/04 07:04:07;;;;;;;0.80;0.80;;;;;;;18.30;46.99;96862.28;4960498;28;20050;-61
2024/04/04 07:06:34;;;;;;;0.82;0.82;;;;;;;18.28;45.64;96861.09;4960451;28;20721;-80
2024/04/04 07:09:00;;;;;;;0.85;0.85;;;;;;;18.28;45.83;96797.41;4961269;28;20189;-63
2024/04/04 07:11:28;;;;;;;0.80;0.80;;;;;;;18.10;44.68;96732.41;4959465;28;20058;-61
2024/04/04 07:13:54;;;;;;;0.90;0.90;;;;;;;19.10;44.47;96854.44;4942787;28;20050;-77
2024/04/04 07:16:20;;;;;;;0.90;0.90;;;;;;;19.03;44.04;96843.34;4943284;28;20074;-61
2024/04/04 07:18:46;;;;;;;0.80;0.80;;;;;;;19.10;44.44;96859.25;4960240;28;20051;-69
2024/04/04 07:21:12;;;;;;;0.80;0.80;;;;;;;18.64;44.96;96848.88;4966591;28;20058;-62
2024/04/04 07:23:37;;;;;;;0.80;0.80;;;;;;;18.96;44.72;96845.50;4965624;28;20050;-76
2024/04/04 07:26:03;;;;;;;0.80;0.80;;;;;;;18.73;45.16;96840.69;4987510;28;20570;-71
2024/04/04 07:28:29;;;;;;;0.90;0.90;;;;;;;19.09;43.92;96830.41;4948255;28;20166;-61
2024/04/04 07:30:55;;;;;;;0.90;0.90;;;;;;;19.17;44.13;96814.97;4976319;28;20476;-74
2024/04/04 07:33:20;;;;;;;0.95;0.95;;;;;;;18.79;44.52;96835.41;4962130;28;20250;-57
2024/04/04 07:35:46;;;;;;;0.90;0.90;;;;;;;18.90;44.84;96838.81;4960017;28;20081;-58
2024/04/04 07:38:13;;;;;;;0.80;0.80;;;;;;;18.69;44.29;96797.91;4948207;28;20058;-75
2024/04/04 07:40:40;;;;;;;0.80;0.80;;;;;;;18.74;44.37;96797.41;4949711;28;20066;-70
2024/04/04 07:43:08;;;;;;;0.90;0.90;;;;;;;19.37;43.40;96813.00;4953322;28;20059;-72
2024/04/04 07:45:38;;;;;;;0.85;0.85;;;;;;;19.14;41.97;96759.69;4959604;28;20514;-65
2024/04/04 07:48:08;;;;;;;0.90;0.90;;;;;;;20.02;41.34;96828.00;4946501;28;20047;-73
2024/04/04 07:50:34;;;;;;;1.10;1.10;;;;;;;20.35;40.28;96823.22;4963909;28;20062;-70
2024/04/04 07:53:00;;;;;;;0.90;0.90;;;;;;;20.48;40.18;96781.91;4949583;28;20054;-68
2024/04/04 07:55:25;;;;;;;0.90;0.90;;;;;;;20.90;39.36;96817.34;4971046;28;20332;-72
2024/04/04 07:57:51;;;;;;;0.90;0.90;;;;;;;21.07;39.09;96816.09;4963654;28;20051;-58
2024/04/04 08:00:18;;;;;;;0.85;0.85;;;;;;;21.18;38.41;96816.63;4947157;28;20050;-61
2024/04/04 08:02:45;;;;;;;0.90;0.90;;;;;;;20.80;38.23;96759.31;4962533;28;20684;-58
2024/04/04 08:05:11;;;;;;;0.90;0.90;;;;;;;20.95;38.09;96825.25;4963417;28;20117;-57
2024/04/04 08:07:37;;;;;;;1.00;1.00;;;;;;;21.16;37.78;96830.34;4947463;28;20538;-60
2024/04/04 08:10:08;;;;;;;0.90;0.90;;;;;;;21.21;37.56;96827.00;4961842;28;20050;-58
2024/04/04 08:12:37;;;;;;;0.80;0.80;;;;;;;21.30;37.38;96823.50;4945355;28;20604;-59
2024/04/04 08:15:04;;;;;;;0.80;0.80;;;;;;;21.58;37.30;96823.47;4963091;28;20403;-60
2024/04/04 08:17:32;;;;;;;1.00;1.00;;;;;;;21.35;36.78;96832.22;4963743;28;20074;-59
2024/04/04 08:19:59;;;;;;;1.10;1.10;;;;;;;21.27;37.08;96830.03;4976083;28;20432;-58
2024/04/04 08:22:25;;;;;;;0.90;0.90;;;;;;;20.52;37.57;96748.81;4964086;28;20071;-59
2024/04/04 08:24:51;;;;;;;0.93;0.93;;;;;;;20.69;37.80;96829.19;4963567;28;20058;-74
2024/04/04 08:27:20;;;;;;;0.93;0.93;;;;;;;21.07;37.48;96812.50;4947869;28;20050;-74
2024/04/04 08:29:50;;;;;;;0.90;0.90;;;;;;;20.86;37.40;96816.66;4996744;28;20051;-76
2024/04/04 08:32:16;;;;;;;0.80;0.80;;;;;;;21.00;37.46;96810.69;4947548;28;20431;-59
2024/04/04 08:34:43;;;;;;;0.90;0.90;;;;;;;20.32;37.95;96692.69;4946509;28;20078;-76
2024/04/04 08:37:10;;;;;;;0.90;0.90;;;;;;;21.05;37.36;96806.53;4962797;28;20074;-74
2024/04/04 08:39:37;;;;;;;0.93;0.93;;;;;;;21.56;36.78;96811.09;4966154;28;20104;-60
2024/04/04 08:42:04;;;;;;;0.90;0.90;;;;;;;21.57;36.37;96770.38;4953943;28;20143;-58
2024/04/04 08:44:31;;;;;;;0.90;0.90;;;;;;;22.00;36.23;96799.63;4963648;28;20473;-59
2024/04/04 08:46:59;;;;;;;1.00;1.00;;;;;;;22.01;36.20;96778.66;4963522;28;20129;-60
2024/04/04 08:49:29;;;;;;;0.90;0.90;;;;;;;22.31;36.47;96802.69;4946747;28;20635;-59
2024/04/04 08:51:56;;;;;;;0.90;0.90;;;;;;;22.11;36.06;96797.28;4960649;28;20593;-78
2024/04/04 08:54:26;;;;;;;1.00;1.00;;;;;;;22.29;36.07;96794.66;4954735;28;20070;-59
2024/04/04 08:56:53;;;;;;;0.90;0.90;;;;;;;22.28;35.98;96793.09;4947218;28;20065;-73
2024/04/04 08:59:21;;;;;;;0.90;0.90;;;;;;;21.85;35.29;96753.38;4962396;28;20121;-78
2024/04/04 09:01:47;;;;;;;1.00;1.00;;;;;;;21.13;36.38;96745.94;4962944;28;20058;-77
2024/04/04 09:04:27;;;;;;;0.88;0.88;;;;;;;21.62;36.87;96781.09;4960637;28;20081;-76
2024/04/04 09:06:53;;;;;;;0.90;0.90;;;;;;;21.72;36.28;96780.75;4961336;28;20051;-75
2024/04/04 09:09:20;;;;;;;0.90;0.90;;;;;;;21.50;36.43;96777.00;4962432;28;20086;-77
2024/04/04 09:11:52;;;;;;;1.02;1.02;;;;;;;21.59;36.91;96767.91;4963244;28;20092;-75
2024/04/04 09:14:18;;;;;;;1.00;1.00;;;;;;;22.12;36.09;96775.50;4962773;28;20429;-76
2024/04/04 09:16:45;;;;;;;0.95;0.95;;;;;;;21.89;35.76;96731.50;4947078;28;20062;-72
2024/04/04 09:19:19;;;;;;;0.90;0.90;;;;;;;21.53;36.62;96767.66;4963841;28;20067;-74
2024/04/04 09:21:46;;;;;;;0.93;0.93;;;;;;;21.96;37.04;96770.78;4963418;28;20472;-77
2024/04/04 09:24:14;;;;;;;1.00;1.00;;;;;;;21.50;36.84;96686.81;4963041;28;20675;-73
2024/04/04 09:26:41;;;;;;;0.90;0.90;;;;;;;22.02;36.95;96768.94;4979417;28;20250;-76
2024/04/04 09:29:08;;;;;;;0.93;0.93;;;;;;;22.24;36.19;96763.41;4962721;28;20125;-75
2024/04/04 09:31:36;;;;;;;0.93;0.93;;;;;;;22.22;35.79;96741.28;4963493;28;20055;-76
2024/04/04 09:34:02;;;;;;;1.00;1.00;;;;;;;22.48;35.68;96707.38;4963820;28;20125;-77
2024/04/04 09:36:30;;;;;;;0.93;0.93;;;;;;;21.96;35.88;96733.28;4962659;28;20057;-73
2024/04/04 09:39:01;;;;;;;0.90;0.90;;;;;;;21.35;37.09;96764.59;4962172;28;20054;-76
2024/04/04 09:41:30;;;;;;;0.90;0.90;;;;;;;21.49;37.16;96758.53;4962281;28;20522;-76
2024/04/04 09:43:57;;;;;;;0.90;0.90;;;;;;;22.03;36.01;96759.25;4956509;28;20051;-73
2024/04/04 09:46:25;;;;;;;0.95;0.95;;;;;;;22.31;35.57;96758.31;4963016;28;20548;-76
2024/04/04 09:48:52;;;;;;;0.90;0.90;;;;;;;22.85;35.15;96754.47;4963139;28;20073;-75
2024/04/04 09:51:19;;;;;;;0.95;0.95;;;;;;;22.65;34.70;96652.31;4963180;28;20063;-74
2024/04/04 09:53:47;;;;;;;1.02;1.02;;;;;;;23.63;34.22;96756.00;4962683;28;20486;-76
2024/04/04 09:56:14;;;;;;;1.10;1.10;;;;;;;23.96;33.70;96757.09;4947508;28;20059;-73
2024/04/04 09:58:42;;;;;;;1.00;1.00;;;;;;;24.06;33.90;96733.25;4962896;28;20525;-77
2024/04/04 10:01:22;;;;;;;1.13;1.13;;;;;;;24.51;32.91;96749.56;4946850;28;20110;-73
2024/04/04 10:03:54;;;;;;;1.20;1.20;;;;;;;24.94;32.11;96741.63;4995674;28;20098;-76
2024/04/04 10:06:38;;;;;;;1.10;1.10;;;;;;;25.19;31.91;96746.97;4962807;28;20058;-72
2024/04/04 10:09:16;;;;;;;;;;;;;;;25.10;32.76;96749.81;4963394;28;20647;-76
2024/04/04 10:11:43;;;;;;;1.20;1.20;;;;;;;24.83;32.31;96741.28;4962632;28;20139;-75
2024/04/04 10:14:12;;;;;;;1.25;1.25;;;;;;;25.98;31.97;96742.88;4963054;28;20530;-74
2024/04/04 10:16:47;;;;;;;1.20;1.20;;;;;;;25.53;31.44;96742.22;4962557;28;20526;-71
2024/04/04 10:19:18;;;;;;;1.30;1.30;;;;;;;24.44;32.95;96733.69;4962021;28;20058;-78
2024/04/04 10:21:45;;;;;;;1.15;1.15;;;;;;;24.68;32.74;96733.88;4958659;28;20066;-74
2024/04/04 10:24:32;;;;;;;1.30;1.30;;;;;;;23.69;33.04;96663.63;4967880;28;20254;-79
2024/04/04 10:27:02;;;;;;;0.95;0.95;;;;;;;24.03;32.19;96702.28;4962774;28;20178;-73
2024/04/04 10:29:33;;;;;;;1.10;1.10;;;;;;;23.77;32.12;96732.81;4961979;28;20059;-77
2024/04/04 10:31:59;;;;;;;1.10;1.10;;;;;;;23.20;32.50;96655.06;4962426;28;20059;-76
2024/04/04 10:34:25;;;;;;;1.10;1.10;;;;;;;23.29;34.10;96730.66;4962035;28;20051;-78
2024/04/04 10:36:50;;;;;;;1.00;1.00;;;;;;;23.14;35.11;96732.41;4962322;28;20051;-78
2024/04/04 10:39:17;;;;;;;0.98;0.98;;;;;;;22.24;36.48;96733.16;4962076;28;20058;-74
2024/04/04 10:41:45;;;;;;;0.95;0.95;;;;;;;21.86;36.15;96743.69;4946205;28;20050;-76
2024/04/04 10:44:16;;;;;;;0.90;0.90;;;;;;;21.13;36.04;96712.13;4962373;28;20126;-76
2024/04/04 10:46:46;;;;;;;0.93;0.93;;;;;;;21.63;35.31;96741.19;4946155;28;20070;-73
2024/04/04 10:49:13;;;;;;;0.90;0.90;;;;;;;21.12;36.32;96755.63;4962226;28;20058;-76
2024/04/04 10:51:51;;;;;;;0.80;0.80;;;;;;;20.66;37.70;96757.66;4962243;28;20074;-73
2024/04/04 10:54:18;;;;;;;0.90;0.90;;;;;;;20.86;37.79;96754.72;4961856;28;20050;-73
2024/04/04 10:56:45;;;;;;;0.85;0.85;;;;;;;20.89;37.76;96759.47;4946264;28;20055;-76
2024/04/04 10:59:15;;;;;;;0.80;0.80;;;;;;;21.16;37.41;96776.81;4945783;28;20059;-73
2024/04/04 11:01:44;;;;;;;0.80;0.80;;;;;;;21.07;38.14;96782.28;4944535;28;20145;-76
2024/04/04 11:04:11;;;;;;;0.90;0.90;;;;;;;20.15;39.49;96783.13;4961582;28;20085;-72
2024/04/04 11:06:39;;;;;;;0.80;0.80;;;;;;;19.74;40.56;96771.66;4961056;28;20109;-75
2024/04/04 11:09:10;;;;;;;0.80;0.80;;;;;;;19.17;41.34;96781.28;4960669;28;20066;-74
2024/04/04 11:11:38;;;;;;;0.80;0.80;;;;;;;18.60;41.12;96651.78;4961599;28;20477;-61
2024/04/04 11:14:05;;;;;;;0.80;0.80;;;;;;;19.39;40.58;96793.69;4944851;28;20517;-58
2024/04/04 11:16:31;;;;;;;0.85;0.85;;;;;;;19.43;39.22;96788.78;4961280;28;20058;-61
2024/04/04 11:18:58;;;;;;;0.85;0.85;;;;;;;19.44;38.71;96801.59;4961376;28;20057;-59
2024/04/04 11:21:23;;;;;;;0.80;0.80;;;;;;;19.49;39.25;96792.66;4961569;28;20065;-58
2024/04/04 11:23:49;;;;;;;0.90;0.90;;;;;;;20.11;39.45;96793.63;4962127;28;20058;-59
2024/04/04 11:26:15;;;;;;;0.90;0.90;;;;;;;19.98;39.17;96789.97;4961427;28;20062;-74
2024/04/04 11:28:41;;;;;;;0.88;0.88;;;;;;;20.40;39.32;96777.69;4957864;28;20058;-64
2024/04/04 11:31:07;;;;;;;0.80;0.80;;;;;;;20.45;38.85;96775.13;4959662;28;20123;-71
2024/04/04 11:33:33;;;;;;;0.82;0.82;;;;;;;20.66;38.74;96770.97;4943915;28;20991;-70
2024/04/04 11:36:00;;;;;;;0.80;0.80;;;;;;;21.05;38.17;96767.91;4960954;28;20135;-65